Time;durP1;ratioP1;P1;durP2;ratioP2;P2;SDS_P1;SDS_P2;PMS_P1;PMS_P2;Temp;Humidity;BMP_temperature;BMP_pressure;BME280_temperature;BME280_humidity;BME280_pressure;Samples;Min_cycle;Max_cycle;Signal;HPM_P1;HPM_P2
2021/03/25 00:00:53;;;;;;;;;15.33;15.33;;;;;;;;5069604;27;113615;-72
2021/03/25 00:03:20;;;;;;;;;18.33;17.00;;;;;;;;5069698;27;114887;-72
2021/03/25 00:05:46;;;;;;;;;17.33;15.67;;;;;;;;5070282;27;111932;-73
2021/03/25 00:08:13;;;;;;;;;21.00;18.00;;;;;;;;5071944;27;114042;-73
2021/03/25 00:10:39;;;;;;;;;18.00;15.33;;;;;;;;5071870;27;112018;-73
2021/03/25 00:13:06;;;;;;;;;18.67;16.00;;;;;;;;5068496;27;113453;-72
2021/03/25 00:15:33;;;;;;;;;16.00;14.67;;;;;;;;5070912;27;113987;-72
2021/03/25 00:18:00;;;;;;;;;17.00;16.67;;;;;;;;5072718;27;112144;-73
2021/03/25 00:20:26;;;;;;;;;20.00;17.00;;;;;;;;5070831;27;113593;-73
2021/03/25 00:22:52;;;;;;;;;18.00;13.00;;;;;;;;5067954;27;114149;-73
2021/03/25 00:25:19;;;;;;;;;15.33;13.00;;;;;;;;5069556;27;113179;-71
2021/03/25 00:27:45;;;;;;;;;10.00;10.00;;;;;;;;5073050;27;113579;-72
2021/03/25 00:30:12;;;;;;;;;20.67;17.00;;;;;;;;5068576;27;111861;-72
2021/03/25 00:32:39;;;;;;;;;19.33;18.33;;;;;;;;5071337;27;113552;-72
2021/03/25 00:35:06;;;;;;;;;19.33;18.00;;;;;;;;5067005;27;114220;-72
2021/03/25 00:37:32;;;;;;;;;21.33;19.00;;;;;;;;5070199;27;113668;-72
2021/03/25 00:39:58;;;;;;;;;19.00;15.67;;;;;;;;5067371;27;113421;-72
2021/03/25 00:42:24;;;;;;;;;19.33;18.00;;;;;;;;5074440;27;113935;-71
2021/03/25 00:44:50;;;;;;;;;15.67;15.67;;;;;;;;5071254;27;112036;-72
2021/03/25 00:47:16;;;;;;;;;19.33;18.00;;;;;;;;5069262;27;113396;-73
2021/03/25 00:49:43;;;;;;;;;19.67;17.00;;;;;;;;5071655;27;114411;-73
2021/03/25 00:52:09;;;;;;;;;24.67;20.33;;;;;;;;5075879;27;113196;-72
2021/03/25 00:54:35;;;;;;;;;18.00;17.33;;;;;;;;5070461;27;114016;-72
2021/03/25 00:57:01;;;;;;;;;17.33;17.33;;;;;;;;5067136;27;112030;-72
2021/03/25 00:59:27;;;;;;;;;15.00;14.00;;;;;;;;5070340;27;113911;-71
2021/03/25 01:01:53;;;;;;;;;18.00;15.67;;;;;;;;5067584;27;113928;-72
2021/03/25 01:04:19;;;;;;;;;16.00;14.67;;;;;;;;5069706;27;112160;-72
2021/03/25 01:06:46;;;;;;;;;20.00;15.00;;;;;;;;5066596;27;113448;-72
2021/03/25 01:09:12;;;;;;;;;19.67;18.00;;;;;;;;5068680;27;114307;-72
2021/03/25 01:11:38;;;;;;;;;20.00;18.67;;;;;;;;5070963;27;112225;-72
2021/03/25 01:14:06;;;;;;;;;23.00;18.33;;;;;;;;5070750;27;114089;-72
2021/03/25 01:16:34;;;;;;;;;17.33;17.00;;;;;;;;5066791;27;112240;-72
2021/03/25 01:19:01;;;;;;;;;18.33;17.00;;;;;;;;5067195;27;116568;-72
2021/03/25 01:21:27;;;;;;;;;22.00;19.67;;;;;;;;5069457;27;114461;-72
2021/03/25 01:23:54;;;;;;;;;19.33;17.33;;;;;;;;5067972;27;112135;-71
2021/03/25 01:26:20;;;;;;;;;17.00;17.00;;;;;;;;5069213;27;113813;-72
2021/03/25 01:28:46;;;;;;;;;17.33;16.67;;;;;;;;5067830;27;113992;-71
2021/03/25 01:31:12;;;;;;;;;19.00;18.33;;;;;;;;5067641;27;111851;-72
2021/03/25 01:33:39;;;;;;;;;23.00;19.67;;;;;;;;5073229;27;113705;-72
2021/03/25 01:36:05;;;;;;;;;19.00;18.00;;;;;;;;5067172;27;112055;-72
2021/03/25 01:38:31;;;;;;;;;17.00;17.00;;;;;;;;5069670;27;113895;-73
2021/03/25 01:40:59;;;;;;;;;16.67;16.67;;;;;;;;5066107;27;114627;-76
2021/03/25 01:43:27;;;;;;;;;17.00;17.00;;;;;;;;5069851;27;111981;-75
2021/03/25 01:45:55;;;;;;;;;14.67;13.67;;;;;;;;5066923;27;113518;-75
2021/03/25 01:48:26;;;;;;;;;12.33;12.33;;;;;;;;5068742;27;114788;-74
2021/03/25 01:50:54;;;;;;;;;18.00;17.33;;;;;;;;5066854;27;112872;-74
2021/03/25 01:53:39;;;;;;;;;21.67;17.00;;;;;;;;5069210;27;113856;-74
2021/03/25 01:56:14;;;;;;;;;22.67;20.33;;;;;;;;5070060;27;114055;-76
2021/03/25 01:59:13;;;;;;;;;19.67;16.00;;;;;;;;5068918;27;113480;-74
2021/03/25 02:01:42;;;;;;;;;16.33;15.67;;;;;;;;5025790;27;114094;-74
2021/03/25 02:04:25;;;;;;;;;23.33;17.33;;;;;;;;5023690;27;112021;-75
2021/03/25 02:06:56;;;;;;;;;15.33;15.33;;;;;;;;5051346;27;114131;-73
2021/03/25 02:09:25;;;;;;;;;17.33;16.00;;;;;;;;5068280;27;114412;-75
2021/03/25 02:11:57;;;;;;;;;18.33;16.67;;;;;;;;5066953;27;113256;-74
2021/03/25 02:14:28;;;;;;;;;19.00;17.33;;;;;;;;5069445;27;113484;-73
2021/03/25 02:16:58;;;;;;;;;18.00;14.33;;;;;;;;5066391;27;114155;-73
2021/03/25 02:19:37;;;;;;;;;16.00;14.33;;;;;;;;5073334;27;112405;-73
2021/03/25 02:22:13;;;;;;;;;18.67;17.67;;;;;;;;5064072;27;114191;-73
2021/03/25 02:24:52;;;;;;;;;13.00;13.00;;;;;;;;5067174;27;111952;-74
2021/03/25 02:27:28;;;;;;;;;22.67;19.00;;;;;;;;5067988;27;114091;-75
2021/03/25 02:29:58;;;;;;;;;14.00;13.00;;;;;;;;5068229;27;114076;-74
2021/03/25 02:32:28;;;;;;;;;9.67;9.67;;;;;;;;5066571;27;112815;-74
2021/03/25 02:34:56;;;;;;;;;18.00;16.00;;;;;;;;5068903;27;113484;-74
2021/03/25 02:37:24;;;;;;;;;14.00;14.00;;;;;;;;5065110;27;114336;-75
2021/03/25 02:39:54;;;;;;;;;16.00;16.00;;;;;;;;5071751;27;111891;-75
2021/03/25 02:42:24;;;;;;;;;17.33;13.00;;;;;;;;5056208;27;112991;-74
2021/03/25 02:44:52;;;;;;;;;18.00;18.00;;;;;;;;5068295;27;111847;-73
2021/03/25 02:47:20;;;;;;;;;16.33;16.00;;;;;;;;5067623;27;113487;-74
2021/03/25 02:49:55;;;;;;;;;18.67;18.00;;;;;;;;5066791;27;114064;-73
2021/03/25 02:52:23;;;;;;;;;16.00;16.00;;;;;;;;5066633;27;112351;-74
2021/03/25 02:54:49;;;;;;;;;18.00;17.67;;;;;;;;5068244;27;113921;-74
2021/03/25 02:57:20;;;;;;;;;18.00;15.33;;;;;;;;5066723;27;113988;-74
2021/03/25 02:59:48;;;;;;;;;17.00;17.00;;;;;;;;5067187;27;112263;-74
2021/03/25 03:02:18;;;;;;;;;17.67;16.00;;;;;;;;5071020;27;113492;-74
2021/03/25 03:04:45;;;;;;;;;14.33;14.33;;;;;;;;5067514;27;111937;-74
2021/03/25 03:07:14;;;;;;;;;18.00;17.67;;;;;;;;5067577;27;113772;-73
2021/03/25 03:09:42;;;;;;;;;17.33;16.33;;;;;;;;5065913;27;114051;-74
2021/03/25 03:12:12;;;;;;;;;17.00;16.67;;;;;;;;5067853;27;112277;-74
2021/03/25 03:14:40;;;;;;;;;20.33;17.00;;;;;;;;5065492;27;113458;-73
2021/03/25 03:17:09;;;;;;;;;21.00;17.33;;;;;;;;5067300;27;114065;-72
2021/03/25 03:19:37;;;;;;;;;20.33;17.00;;;;;;;;5065534;27;112228;-73
2021/03/25 03:22:04;;;;;;;;;18.00;15.33;;;;;;;;5068335;27;114100;-73
2021/03/25 03:24:31;;;;;;;;;16.67;15.67;;;;;;;;5068315;27;114771;-74
2021/03/25 03:27:00;;;;;;;;;20.00;18.00;;;;;;;;5064461;27;113495;-73
2021/03/25 03:29:28;;;;;;;;;18.00;15.33;;;;;;;;5064652;27;114224;-72
2021/03/25 03:31:55;;;;;;;;;20.00;17.33;;;;;;;;5068132;27;112016;-73
2021/03/25 03:34:24;;;;;;;;;14.67;14.67;;;;;;;;5068560;27;113642;-73
2021/03/25 03:36:51;;;;;;;;;21.00;19.67;;;;;;;;5064765;27;113648;-73
2021/03/25 03:39:19;;;;;;;;;16.33;13.67;;;;;;;;5066656;27;111849;-73
2021/03/25 03:41:48;;;;;;;;;19.33;17.00;;;;;;;;5066557;27;113551;-74
2021/03/25 03:44:16;;;;;;;;;17.00;16.00;;;;;;;;5066186;27;114067;-74
2021/03/25 03:46:43;;;;;;;;;16.67;15.33;;;;;;;;5072289;27;113864;-74
2021/03/25 03:49:10;;;;;;;;;21.33;18.00;;;;;;;;5068287;27;114665;-74
2021/03/25 03:51:39;;;;;;;;;14.33;14.33;;;;;;;;5067477;27;112046;-74
2021/03/25 03:54:05;;;;;;;;;20.00;18.00;;;;;;;;5065838;27;113591;-73
2021/03/25 03:56:33;;;;;;;;;16.33;16.33;;;;;;;;5071692;27;114041;-72
2021/03/25 03:59:04;;;;;;;;;16.00;13.67;;;;;;;;5065205;27;112326;-73
2021/03/25 04:01:35;;;;;;;;;22.33;16.00;;;;;;;;5065043;27;113544;-73
2021/03/25 04:04:02;;;;;;;;;18.00;15.67;;;;;;;;5063857;27;114081;-73
2021/03/25 04:06:31;;;;;;;;;18.33;17.00;;;;;;;;5065113;27;112870;-74
2021/03/25 04:09:01;;;;;;;;;16.00;16.00;;;;;;;;5067801;27;113973;-73
2021/03/25 04:11:30;;;;;;;;;20.00;17.00;;;;;;;;5064278;27;111870;-72
2021/03/25 04:13:59;;;;;;;;;20.67;20.67;;;;;;;;5068859;27;113756;-73
2021/03/25 04:16:28;;;;;;;;;21.00;17.33;;;;;;;;5067363;27;114065;-73
2021/03/25 04:18:56;;;;;;;;;22.00;21.33;;;;;;;;5065171;27;111914;-73
2021/03/25 04:21:24;;;;;;;;;20.00;19.67;;;;;;;;5067043;27;113537;-74
2021/03/25 04:23:51;;;;;;;;;22.67;20.67;;;;;;;;5064622;27;114095;-75
2021/03/25 04:26:20;;;;;;;;;21.00;19.00;;;;;;;;5066700;27;111802;-75
2021/03/25 04:28:48;;;;;;;;;23.67;21.00;;;;;;;;5069735;27;113714;-74
2021/03/25 04:31:14;;;;;;;;;19.33;18.67;;;;;;;;5069468;27;111911;-74
2021/03/25 04:33:41;;;;;;;;;19.00;17.00;;;;;;;;5066477;27;114104;-73
2021/03/25 04:36:11;;;;;;;;;21.67;21.00;;;;;;;;5064034;27;114206;-74
2021/03/25 04:38:38;;;;;;;;;22.67;21.00;;;;;;;;5066269;27;112072;-74
2021/03/25 04:41:04;;;;;;;;;21.00;21.00;;;;;;;;5065394;27;113537;-74
2021/03/25 04:43:31;;;;;;;;;20.00;18.67;;;;;;;;5066852;27;114183;-75
2021/03/25 04:45:58;;;;;;;;;22.33;17.33;;;;;;;;5066970;27;112166;-75
2021/03/25 04:48:26;;;;;;;;;22.33;19.00;;;;;;;;5071491;27;113567;-76
2021/03/25 04:50:58;;;;;;;;;23.67;21.33;;;;;;;;5071137;27;113283;-75
2021/03/25 04:53:25;;;;;;;;;24.00;20.33;;;;;;;;5070816;27;113494;-75
2021/03/25 04:55:51;;;;;;;;;21.33;19.33;;;;;;;;5067044;27;114096;-75
2021/03/25 04:58:22;;;;;;;;;16.67;16.00;;;;;;;;5069529;27;111906;-73
2021/03/25 05:00:48;;;;;;;;;22.00;20.67;;;;;;;;5070341;27;113552;-75
2021/03/25 05:03:19;;;;;;;;;27.00;22.67;;;;;;;;5068627;27;113943;-75
2021/03/25 05:05:45;;;;;;;;;22.00;19.00;;;;;;;;5069099;27;111907;-75
2021/03/25 05:08:16;;;;;;;;;20.00;17.67;;;;;;;;5069087;27;113624;-76
2021/03/25 05:10:44;;;;;;;;;21.00;19.00;;;;;;;;5067657;27;114461;-75
2021/03/25 05:13:19;;;;;;;;;22.00;20.67;;;;;;;;5074619;27;113334;-75
2021/03/25 05:15:45;;;;;;;;;21.33;21.33;;;;;;;;5069588;27;114339;-75
2021/03/25 05:18:16;;;;;;;;;23.00;20.67;;;;;;;;5068937;27;112133;-75
2021/03/25 05:20:43;;;;;;;;;21.00;19.67;;;;;;;;5068353;27;113553;-75
2021/03/25 05:23:18;;;;;;;;;23.67;21.00;;;;;;;;5068734;27;113878;-74
2021/03/25 05:25:46;;;;;;;;;20.33;17.67;;;;;;;;5069159;27;111895;-76
2021/03/25 05:28:16;;;;;;;;;24.67;22.00;;;;;;;;5068256;27;113773;-77
2021/03/25 05:30:44;;;;;;;;;23.67;21.00;;;;;;;;5067119;27;114064;-76
2021/03/25 05:33:12;;;;;;;;;21.00;20.33;;;;;;;;5069315;27;111898;-75
2021/03/25 05:35:40;;;;;;;;;19.33;19.00;;;;;;;;5071428;27;113572;-75
2021/03/25 05:38:06;;;;;;;;;17.00;16.33;;;;;;;;5065603;27;112143;-76
2021/03/25 05:40:35;;;;;;;;;25.00;22.00;;;;;;;;5069150;27;113872;-75
2021/03/25 05:43:14;;;;;;;;;20.33;19.33;;;;;;;;5065928;27;114210;-74
2021/03/25 05:45:57;;;;;;;;;24.33;23.00;;;;;;;;5070291;27;111938;-75
2021/03/25 05:48:30;;;;;;;;;22.33;21.00;;;;;;;;5070652;27;115429;-76
2021/03/25 05:51:00;;;;;;;;;23.33;21.67;;;;;;;;5065437;27;114968;-75
2021/03/25 05:53:34;;;;;;;;;22.67;20.00;;;;;;;;5066486;27;112010;-73
2021/03/25 05:56:10;;;;;;;;;23.00;19.00;;;;;;;;5066486;27;113876;-75
2021/03/25 05:58:38;;;;;;;;;24.67;20.67;;;;;;;;5071716;27;115255;-76
2021/03/25 06:01:18;;;;;;;;;23.00;20.67;;;;;;;;5067057;27;113639;-76
2021/03/25 06:03:50;;;;;;;;;20.33;17.67;;;;;;;;5066545;27;114098;-75
2021/03/25 06:06:21;;;;;;;;;23.33;19.33;;;;;;;;5068281;27;111837;-75
2021/03/25 06:08:50;;;;;;;;;20.00;20.00;;;;;;;;5067015;27;113400;-75
2021/03/25 06:11:27;;;;;;;;;24.33;20.67;;;;;;;;5067945;27;114208;-75
2021/03/25 06:14:02;;;;;;;;;24.00;22.67;;;;;;;;5065616;27;112219;-75
2021/03/25 06:16:43;;;;;;;;;14.00;13.33;;;;;;;;5066027;27;113928;-75
2021/03/25 06:19:22;;;;;;;;;29.00;22.00;;;;;;;;5068503;27;114572;-76
2021/03/25 06:21:57;;;;;;;;;21.00;20.33;;;;;;;;5072408;27;111807;-75
2021/03/25 06:24:39;;;;;;;;;25.33;20.33;;;;;;;;5065383;27;114248;-74
2021/03/25 06:27:12;;;;;;;;;21.67;20.00;;;;;;;;5066655;27;112198;-76
2021/03/25 06:29:42;;;;;;;;;24.67;21.33;;;;;;;;5067618;27;113575;-75
2021/03/25 06:32:12;;;;;;;;;25.00;21.00;;;;;;;;5066323;27;114053;-75
2021/03/25 06:34:41;;;;;;;;;20.00;20.00;;;;;;;;5067394;27;111974;-76
2021/03/25 06:37:14;;;;;;;;;26.33;24.00;;;;;;;;5066331;27;114134;-76
2021/03/25 06:39:44;;;;;;;;;13.00;12.00;;;;;;;;5064617;27;114187;-77
2021/03/25 06:42:23;;;;;;;;;27.67;22.33;;;;;;;;5071835;27;112287;-74
2021/03/25 06:44:52;;;;;;;;;24.00;23.67;;;;;;;;5068368;27;114252;-73
2021/03/25 06:47:22;;;;;;;;;26.00;24.33;;;;;;;;5064591;27;112002;-74
2021/03/25 06:49:50;;;;;;;;;33.00;26.67;;;;;;;;5066039;27;113485;-73
2021/03/25 06:52:23;;;;;;;;;29.67;25.33;;;;;;;;5066167;27;114712;-77
2021/03/25 06:54:49;;;;;;;;;32.67;26.00;;;;;;;;5064192;27;112802;-75
2021/03/25 06:57:18;;;;;;;;;25.33;24.33;;;;;;;;5066849;27;114181;-76
2021/03/25 06:59:46;;;;;;;;;28.00;26.00;;;;;;;;5064537;27;112709;-73
2021/03/25 07:02:17;;;;;;;;;29.67;23.33;;;;;;;;5065935;27;111893;-76
2021/03/25 07:04:45;;;;;;;;;30.67;26.00;;;;;;;;5074522;27;114380;-70
2021/03/25 07:07:13;;;;;;;;;27.67;25.67;;;;;;;;5067170;27;111970;-68
2021/03/25 07:09:40;;;;;;;;;39.33;28.33;;;;;;;;5065087;27;114409;-73
2021/03/25 07:12:08;;;;;;;;;31.33;29.00;;;;;;;;5065128;27;114169;-73
2021/03/25 07:14:36;;;;;;;;;33.33;28.00;;;;;;;;5072481;27;113125;-71
2021/03/25 07:17:04;;;;;;;;;30.00;29.00;;;;;;;;5074786;27;113402;-69
2021/03/25 07:19:33;;;;;;;;;30.67;27.00;;;;;;;;5069056;27;114329;-67
2021/03/25 07:22:14;;;;;;;;;26.67;24.33;;;;;;;;5075778;27;111942;-68
2021/03/25 07:24:40;;;;;;;;;34.33;34.00;;;;;;;;5074071;27;113620;-69
2021/03/25 07:27:09;;;;;;;;;37.00;30.00;;;;;;;;5078774;27;113989;-68
2021/03/25 07:29:37;;;;;;;;;31.33;28.33;;;;;;;;5075290;27;113881;-70
2021/03/25 07:32:14;;;;;;;;;29.33;29.33;;;;;;;;5072730;27;115156;-68
2021/03/25 07:34:42;;;;;;;;;38.33;33.67;;;;;;;;5068922;27;112052;-67
2021/03/25 07:37:09;;;;;;;;;38.67;32.00;;;;;;;;5068857;27;113401;-67
2021/03/25 07:39:37;;;;;;;;;39.67;31.00;;;;;;;;5066022;27;114830;-69
2021/03/25 07:42:03;;;;;;;;;41.67;36.00;;;;;;;;5069852;27;111940;-68
2021/03/25 07:44:31;;;;;;;;;39.33;36.67;;;;;;;;5064882;27;113822;-68
2021/03/25 07:46:58;;;;;;;;;40.67;33.33;;;;;;;;5067989;27;114154;-69
2021/03/25 07:49:26;;;;;;;;;35.33;31.00;;;;;;;;5069439;27;112105;-69
2021/03/25 07:51:53;;;;;;;;;42.33;36.33;;;;;;;;5067392;27;114107;-68
2021/03/25 07:54:26;;;;;;;;;36.00;31.00;;;;;;;;5068492;27;112184;-67
2021/03/25 07:57:00;;;;;;;;;41.00;31.67;;;;;;;;5063487;27;113420;-68
2021/03/25 07:59:29;;;;;;;;;43.33;36.67;;;;;;;;5058051;27;113121;-69
2021/03/25 08:01:55;;;;;;;;;39.00;35.33;;;;;;;;5067267;27;111857;-68
2021/03/25 08:04:26;;;;;;;;;40.33;35.67;;;;;;;;5067908;27;113370;-68
2021/03/25 08:07:00;;;;;;;;;42.00;35.67;;;;;;;;5067272;27;114337;-68
2021/03/25 08:09:27;;;;;;;;;37.00;32.67;;;;;;;;5065111;27;111869;-67
2021/03/25 08:11:55;;;;;;;;;43.67;36.00;;;;;;;;5067830;27;113877;-67
2021/03/25 08:14:22;;;;;;;;;38.33;33.67;;;;;;;;5067582;27;112061;-68
2021/03/25 08:16:50;;;;;;;;;36.33;36.33;;;;;;;;5065040;27;113814;-68
2021/03/25 08:19:22;;;;;;;;;37.67;33.00;;;;;;;;5067011;27;114216;-69
2021/03/25 08:21:55;;;;;;;;;37.00;32.00;;;;;;;;5068680;27;112054;-67
2021/03/25 08:24:44;;;;;;;;;38.00;31.00;;;;;;;;5068352;27;113770;-67
2021/03/25 08:27:20;;;;;;;;;37.67;33.67;;;;;;;;5068587;27;114420;-67
2021/03/25 08:29:50;;;;;;;;;34.00;28.00;;;;;;;;5069177;27;111887;-68
2021/03/25 08:32:21;;;;;;;;;37.33;37.00;;;;;;;;5074177;27;113464;-67
2021/03/25 08:34:55;;;;;;;;;38.67;34.00;;;;;;;;5061648;27;113171;-67
2021/03/25 08:37:45;;;;;;;;;41.33;37.00;;;;;;;;5071028;27;113558;-68
2021/03/25 08:40:16;;;;;;;;;39.33;36.33;;;;;;;;5069171;27;114198;-67
2021/03/25 08:42:44;;;;;;;;;36.67;35.00;;;;;;;;5062359;27;112049;-68
2021/03/25 08:45:16;;;;;;;;;47.67;39.33;;;;;;;;5067654;27;113672;-67
2021/03/25 08:47:46;;;;;;;;;41.00;31.33;;;;;;;;5069178;27;114337;-69
2021/03/25 08:50:33;;;;;;;;;33.67;32.00;;;;;;;;5069805;27;112173;-68
2021/03/25 08:53:03;;;;;;;;;36.33;33.33;;;;;;;;5067318;27;113725;-68
2021/03/25 08:55:31;;;;;;;;;35.00;35.00;;;;;;;;5073739;27;114268;-70
2021/03/25 08:58:02;;;;;;;;;39.33;36.00;;;;;;;;5068120;27;113705;-69
2021/03/25 09:00:29;;;;;;;;;36.67;35.33;;;;;;;;5066540;27;114124;-70
2021/03/25 09:02:59;;;;;;;;;38.67;35.00;;;;;;;;5067839;27;112479;-70
2021/03/25 09:05:27;;;;;;;;;30.67;28.33;;;;;;;;5067223;27;114269;-69
2021/03/25 09:07:54;;;;;;;;;32.33;28.67;;;;;;;;5069436;27;114578;-70
2021/03/25 09:10:29;;;;;;;;;28.33;26.67;;;;;;;;5068058;27;112706;-70
2021/03/25 09:12:55;;;;;;;;;28.67;28.67;;;;;;;;5067075;27;113710;-69
2021/03/25 09:15:21;;;;;;;;;28.33;24.67;;;;;;;;5069378;27;114194;-71
2021/03/25 09:17:50;;;;;;;;;23.67;22.33;;;;;;;;5071786;27;112400;-70
2021/03/25 09:20:27;;;;;;;;;27.67;24.00;;;;;;;;5068670;27;114118;-70
2021/03/25 09:22:57;;;;;;;;;28.33;27.00;;;;;;;;5067459;27;111963;-71
2021/03/25 09:25:40;;;;;;;;;25.33;23.67;;;;;;;;5071453;27;112717;-71
2021/03/25 09:28:09;;;;;;;;;25.50;23.75;;;;;;;;5067153;27;114038;-69
2021/03/25 09:30:37;;;;;;;;;24.00;22.00;;;;;;;;5066058;27;112230;-70
2021/03/25 09:33:21;;;;;;;;;26.25;24.75;;;;;;;;5067085;27;113389;-70
2021/03/25 09:35:47;;;;;;;;;24.00;22.00;;;;;;;;5069589;27;114153;-71
2021/03/25 09:38:24;;;;;;;;;22.75;22.25;;;;;;;;5067160;27;113531;-70
2021/03/25 09:40:51;;;;;;;;;23.25;20.00;;;;;;;;5069580;27;113595;-70
2021/03/25 09:43:38;;;;;;;;;23.75;20.75;;;;;;;;5066116;27;111953;-69
2021/03/25 09:46:22;;;;;;;;;23.50;20.00;;;;;;;;5068008;27;113663;-68
2021/03/25 09:48:49;;;;;;;;;28.75;24.00;;;;;;;;5066066;27;114044;-68
2021/03/25 09:51:17;;;;;;;;;24.25;20.25;;;;;;;;5065707;27;111911;-69
2021/03/25 09:53:45;;;;;;;;;19.75;19.00;;;;;;;;5060698;27;112441;-69
2021/03/25 09:56:29;;;;;;;;;20.25;17.50;;;;;;;;5064765;27;114076;-70
2021/03/25 09:58:56;;;;;;;;;20.50;18.00;;;;;;;;5068918;27;112314;-70
2021/03/25 10:01:42;;;;;;;;;18.25;18.00;;;;;;;;5066013;27;113867;-70
2021/03/25 10:04:25;;;;;;;;;20.25;18.50;;;;;;;;5073465;27;113840;-71
2021/03/25 10:07:04;;;;;;;;;21.75;19.25;;;;;;;;5063364;27;112504;-69
2021/03/25 10:09:48;;;;;;;;;18.75;16.50;;;;;;;;5069491;27;114262;-71
2021/03/25 10:12:34;;;;;;;;;18.50;18.00;;;;;;;;5068664;27;111923;-71
2021/03/25 10:15:00;;;;;;;;;17.00;17.00;;;;;;;;5066360;27;114430;-71
2021/03/25 10:17:44;;;;;;;;;18.50;17.00;;;;;;;;5068228;27;113892;-70
2021/03/25 10:20:12;;;;;;;;;18.00;17.00;;;;;;;;5067257;27;112494;-71
2021/03/25 10:22:38;;;;;;;;;15.00;15.00;;;;;;;;5067355;27;115393;-71
2021/03/25 10:25:06;;;;;;;;;20.25;16.00;;;;;;;;5070357;27;114859;-71
2021/03/25 10:27:36;;;;;;;;;22.00;17.00;;;;;;;;5069175;27;112010;-70
2021/03/25 10:30:29;;;;;;;;;18.75;16.25;;;;;;;;5068622;27;114854;-69
2021/03/25 10:32:57;;;;;;;;;20.50;19.00;;;;;;;;5044545;27;113095;-70
2021/03/25 10:35:26;;;;;;;;;16.00;15.00;;;;;;;;5064733;27;113019;-69
2021/03/25 10:37:54;;;;;;;;;17.00;15.00;;;;;;;;5064661;27;114122;-68
2021/03/25 10:40:21;;;;;;;;;19.50;18.50;;;;;;;;5063487;27;112323;-69
2021/03/25 10:42:55;;;;;;;;;19.50;18.00;;;;;;;;5064186;27;113978;-69
2021/03/25 10:45:24;;;;;;;;;19.75;18.25;;;;;;;;5063410;27;114152;-68
2021/03/25 10:47:53;;;;;;;;;22.75;20.75;;;;;;;;5066185;27;112036;-66
2021/03/25 10:50:23;;;;;;;;;17.25;16.75;;;;;;;;5071756;27;114490;-67
2021/03/25 10:52:49;;;;;;;;;18.25;17.00;;;;;;;;5065871;27;111909;-67
2021/03/25 10:55:19;;;;;;;;;23.25;17.75;;;;;;;;5068162;27;113714;-67
2021/03/25 10:57:46;;;;;;;;;21.25;19.00;;;;;;;;5060637;27;113054;-65
2021/03/25 11:00:17;;;;;;;;;19.75;16.50;;;;;;;;5068679;27;111996;-66
2021/03/25 11:02:44;;;;;;;;;16.50;16.50;;;;;;;;5067889;27;113494;-66
2021/03/25 11:05:16;;;;;;;;;22.00;19.50;;;;;;;;5055626;27;113020;-68
2021/03/25 11:07:44;;;;;;;;;23.75;20.25;;;;;;;;5069543;27;113375;-66
2021/03/25 11:10:19;;;;;;;;;21.25;19.00;;;;;;;;5072629;27;113498;-67
2021/03/25 11:12:45;;;;;;;;;21.75;18.25;;;;;;;;5059096;27;112222;-66
2021/03/25 11:15:18;;;;;;;;;20.50;18.25;;;;;;;;5065339;27;113278;-68
2021/03/25 11:17:44;;;;;;;;;19.00;18.00;;;;;;;;5066448;27;114303;-66
2021/03/25 11:20:13;;;;;;;;;19.00;17.75;;;;;;;;5066369;27;111863;-66
2021/03/25 11:22:40;;;;;;;;;18.25;17.50;;;;;;;;5066511;27;113722;-66
2021/03/25 11:25:12;;;;;;;;;19.25;17.50;;;;;;;;5066605;27;114043;-66
2021/03/25 11:27:38;;;;;;;;;19.50;16.25;;;;;;;;5063676;27;112041;-66
2021/03/25 11:30:06;;;;;;;;;21.00;16.75;;;;;;;;5067628;27;113925;-67
2021/03/25 11:32:35;;;;;;;;;18.25;18.00;;;;;;;;5075666;27;113700;-66
2021/03/25 11:35:20;;;;;;;;;18.00;17.00;;;;;;;;5058640;27;112421;-67
2021/03/25 11:37:46;;;;;;;;;19.75;18.00;;;;;;;;5072841;27;114161;-66
2021/03/25 11:40:15;;;;;;;;;22.00;17.00;;;;;;;;5065275;27;112187;-66
2021/03/25 11:42:42;;;;;;;;;17.00;16.75;;;;;;;;5066810;27;112916;-67
2021/03/25 11:45:28;;;;;;;;;20.75;20.00;;;;;;;;5074845;27;114242;-66
2021/03/25 11:47:54;;;;;;;;;20.00;19.25;;;;;;;;5074245;27;112168;-66
2021/03/25 11:50:45;;;;;;;;;18.25;17.50;;;;;;;;5068596;27;112492;-66
2021/03/25 11:53:25;;;;;;;;;19.50;17.50;;;;;;;;5061018;27;114060;-66
2021/03/25 11:55:53;;;;;;;;;18.25;18.25;;;;;;;;5072694;27;112057;-67
2021/03/25 11:58:20;;;;;;;;;21.00;17.75;;;;;;;;5070826;27;114140;-66
2021/03/25 12:00:54;;;;;;;;;19.00;18.00;;;;;;;;5059239;27;112095;-68
2021/03/25 12:03:24;;;;;;;;;15.25;14.75;;;;;;;;5072245;27;113729;-68
2021/03/25 12:05:50;;;;;;;;;18.25;18.25;;;;;;;;5068372;27;114131;-69
2021/03/25 12:08:25;;;;;;;;;19.00;17.25;;;;;;;;5071141;27;112006;-67
2021/03/25 12:10:59;;;;;;;;;17.00;17.00;;;;;;;;5072360;27;113968;-71
2021/03/25 12:13:25;;;;;;;;;19.75;16.00;;;;;;;;5067650;27;114053;-71
2021/03/25 12:15:52;;;;;;;;;19.25;18.00;;;;;;;;5067925;27;112124;-71
2021/03/25 12:18:21;;;;;;;;;19.00;17.25;;;;;;;;5071801;27;113743;-71
2021/03/25 12:20:47;;;;;;;;;15.75;15.50;;;;;;;;5071181;27;111920;-71
2021/03/25 12:23:15;;;;;;;;;17.25;15.00;;;;;;;;5069342;27;113167;-72
2021/03/25 12:25:41;;;;;;;;;18.00;16.00;;;;;;;;5073698;27;114078;-71
2021/03/25 12:28:09;;;;;;;;;19.25;16.75;;;;;;;;5067962;27;111952;-71
2021/03/25 12:30:35;;;;;;;;;14.00;14.00;;;;;;;;5067573;27;113593;-70
2021/03/25 12:33:01;;;;;;;;;16.25;15.00;;;;;;;;5068065;27;113896;-71
2021/03/25 12:35:27;;;;;;;;;17.75;14.75;;;;;;;;5065794;27;112082;-72
2021/03/25 12:37:54;;;;;;;;;19.00;17.25;;;;;;;;5069111;27;112742;-71
2021/03/25 12:40:21;;;;;;;;;17.00;15.00;;;;;;;;5069294;27;113994;-70
2021/03/25 12:42:47;;;;;;;;;14.25;13.25;;;;;;;;5068739;27;112605;-70
2021/03/25 12:45:24;;;;;;;;;14.25;12.75;;;;;;;;5067806;27;114593;-70
2021/03/25 12:47:50;;;;;;;;;14.25;12.75;;;;;;;;5067775;27;111813;-70
2021/03/25 12:50:16;;;;;;;;;14.75;13.50;;;;;;;;5070651;27;113698;-70
2021/03/25 12:52:42;;;;;;;;;15.00;15.00;;;;;;;;5067340;27;114135;-70
2021/03/25 12:55:09;;;;;;;;;15.50;14.00;;;;;;;;5069144;27;112048;-70
2021/03/25 12:57:35;;;;;;;;;11.25;11.25;;;;;;;;5069648;27;113639;-71
2021/03/25 13:00:01;;;;;;;;;15.75;15.00;;;;;;;;5067507;27;114213;-69
2021/03/25 13:02:28;;;;;;;;;17.75;16.75;;;;;;;;5074065;27;111801;-71
2021/03/25 13:04:54;;;;;;;;;14.00;12.50;;;;;;;;5066735;27;114089;-70
2021/03/25 13:07:20;;;;;;;;;15.25;14.00;;;;;;;;5070339;27;111949;-70
2021/03/25 13:09:46;;;;;;;;;16.25;14.50;;;;;;;;5060758;27;112381;-70
2021/03/25 13:12:16;;;;;;;;;15.00;15.00;;;;;;;;5068710;27;114380;-70
2021/03/25 13:14:42;;;;;;;;;14.00;14.00;;;;;;;;5067847;27;111830;-70
2021/03/25 13:17:08;;;;;;;;;12.75;10.50;;;;;;;;5068924;27;113448;-70
2021/03/25 13:19:34;;;;;;;;;13.00;13.00;;;;;;;;5068328;27;113992;-70
2021/03/25 13:22:00;;;;;;;;;14.25;14.00;;;;;;;;5071734;27;111941;-69
2021/03/25 13:24:27;;;;;;;;;14.00;13.00;;;;;;;;5069012;27;114748;-70
2021/03/25 13:26:52;;;;;;;;;11.25;11.25;;;;;;;;5066473;27;112165;-70
2021/03/25 13:29:18;;;;;;;;;14.00;10.25;;;;;;;;5070662;27;113337;-70
2021/03/25 13:31:44;;;;;;;;;9.25;8.00;;;;;;;;5067141;27;113949;-70
2021/03/25 13:34:10;;;;;;;;;12.25;10.75;;;;;;;;5069163;27;111950;-70
2021/03/25 13:36:37;;;;;;;;;12.50;12.00;;;;;;;;5067705;27;113502;-70
2021/03/25 13:39:04;;;;;;;;;11.00;10.50;;;;;;;;5067057;27;114200;-69
2021/03/25 13:41:30;;;;;;;;;16.00;14.00;;;;;;;;5069178;27;111848;-69
2021/03/25 13:43:56;;;;;;;;;14.25;13.00;;;;;;;;5070383;27;113392;-70
2021/03/25 13:46:22;;;;;;;;;12.75;11.50;;;;;;;;5066740;27;112100;-68
2021/03/25 13:48:48;;;;;;;;;15.00;15.00;;;;;;;;5066619;27;113575;-68
2021/03/25 13:51:14;;;;;;;;;12.75;12.00;;;;;;;;5068639;27;114049;-67
2021/03/25 13:53:41;;;;;;;;;11.50;10.75;;;;;;;;5067802;27;111895;-67
2021/03/25 13:56:07;;;;;;;;;11.00;9.75;;;;;;;;5068316;27;113669;-67
2021/03/25 13:58:33;;;;;;;;;10.00;10.00;;;;;;;;5067092;27;115904;-68
2021/03/25 14:01:00;;;;;;;;;15.75;13.50;;;;;;;;5065625;27;112467;-66
2021/03/25 14:03:26;;;;;;;;;9.00;9.00;;;;;;;;5069347;27;114080;-68
2021/03/25 14:05:52;;;;;;;;;12.00;12.00;;;;;;;;5069973;27;113964;-67
2021/03/25 14:08:18;;;;;;;;;13.50;11.50;;;;;;;;5067584;27;114278;-68
2021/03/25 14:10:46;;;;;;;;;10.00;10.00;;;;;;;;5069927;27;114408;-69
2021/03/25 14:13:13;;;;;;;;;11.50;9.00;;;;;;;;5068184;27;112630;-68
2021/03/25 14:15:42;;;;;;;;;15.50;14.50;;;;;;;;5068775;27;113963;-68
2021/03/25 14:18:09;;;;;;;;;11.00;10.25;;;;;;;;5062378;27;112940;-68